Time;durP1;ratioP1;P1;durP2;ratioP2;P2;SDS_P1;SDS_P2;PMS_P1;PMS_P2;Temp;Humidity;BMP_temperature;BMP_pressure;BME280_temperature;BME280_humidity;BME280_pressure;Samples;Min_cycle;Max_cycle;Signal;HPM_P1;HPM_P2
2022/12/21 00:00:19;;;;;;;16.60;8.98;;;8.60;61.30;;;7.32;63.94;100912.84;12255071;19;20010;-81
2022/12/21 00:04:21;;;;;;;13.32;8.07;;;8.60;61.40;;;7.28;64.06;100908.66;12254774;19;20372;-81
2022/12/21 00:08:23;;;;;;;14.35;8.73;;;8.60;61.40;;;7.33;63.91;100898.94;12252051;19;20007;-81
2022/12/21 00:12:25;;;;;;;16.52;8.55;;;8.60;61.30;;;7.32;64.04;100897.25;12253916;19;20018;-81
2022/12/21 00:16:31;;;;;;;12.68;7.97;;;8.60;61.40;;;7.34;63.82;100899.78;12252622;19;20027;-81
2022/12/21 00:20:33;;;;;;;15.43;8.50;;;8.60;61.40;;;7.30;63.87;100891.25;12254530;19;20106;-81
2022/12/21 00:24:35;;;;;;;18.33;9.70;;;8.60;61.50;;;7.31;64.07;100887.75;12254379;19;20007;-81
2022/12/21 00:28:37;;;;;;;13.77;8.40;;;8.60;61.60;;;7.20;64.11;100875.19;12251899;19;20022;-81
2022/12/21 00:32:39;;;;;;;14.23;8.05;;;8.60;61.50;;;7.29;64.15;100879.16;12249622;19;20017;-81
2022/12/21 00:36:41;;;;;;;14.93;8.38;;;8.60;61.50;;;7.27;64.10;100870.59;12250944;19;20023;-81
2022/12/21 00:40:43;;;;;;;13.05;7.93;;;8.60;61.60;;;7.27;64.21;100865.41;12251896;19;20126;-81
2022/12/21 00:44:45;;;;;;;17.30;8.93;;;8.60;61.70;;;7.31;64.17;100874.75;12252005;19;20642;-81
2022/12/21 00:48:48;;;;;;;16.23;8.88;;;8.60;61.80;;;7.27;64.17;100862.81;12246527;19;20031;-81
2022/12/21 00:52:49;;;;;;;13.82;7.63;;;8.60;61.80;;;7.20;64.14;100849.22;12249797;19;20037;-81
2022/12/21 00:56:52;;;;;;;13.88;8.15;;;8.60;61.90;;;7.18;64.00;100855.38;12250559;19;20035;-81
2022/12/21 01:00:56;;;;;;;14.70;8.63;;;8.60;61.90;;;7.26;64.06;100867.16;12249299;19;20657;-81
2022/12/21 01:05:00;;;;;;;14.20;8.52;;;8.60;62.00;;;7.16;64.17;100854.59;12249139;19;20028;-81
2022/12/21 01:09:04;;;;;;;13.30;7.32;;;8.60;62.00;;;7.23;64.14;100869.03;12245461;19;20019;-81
2022/12/21 01:13:06;;;;;;;14.60;8.70;;;8.60;62.00;;;7.11;64.06;100838.34;12246980;19;20031;-81
2022/12/21 01:17:08;;;;;;;14.02;7.55;;;8.50;61.90;;;7.22;64.15;100857.78;12247085;19;20011;-81
2022/12/21 01:21:24;;;;;;;13.90;8.32;;;8.60;62.00;;;7.18;64.06;100855.38;12248285;19;20023;-81
2022/12/21 01:25:25;;;;;;;14.30;7.90;;;8.60;62.00;;;7.22;64.35;100856.94;12250014;19;20035;-81
2022/12/21 01:29:27;;;;;;;14.52;8.20;;;8.50;62.10;;;7.25;64.25;100862.88;12249356;19;20011;-81
2022/12/21 01:33:30;;;;;;;19.20;9.68;;;8.50;62.20;;;7.12;64.24;100832.25;12248677;19;20010;-81
2022/12/21 01:37:31;;;;;;;14.25;8.32;;;8.50;62.20;;;7.22;64.27;100846.56;12247603;19;20476;-81
2022/12/21 01:41:33;;;;;;;14.80;8.55;;;8.50;62.30;;;7.22;64.19;100830.97;12248805;19;20026;-81
2022/12/21 01:45:35;;;;;;;14.43;8.85;;;8.50;62.30;;;7.23;64.14;100836.09;12248033;19;20038;-81
2022/12/21 01:49:37;;;;;;;15.40;8.60;;;8.50;62.50;;;7.16;64.22;100816.50;12250548;19;20006;-81
2022/12/21 01:53:50;;;;;;;16.37;9.37;;;8.50;62.50;;;7.21;64.19;100824.94;12247004;19;20490;-81
2022/12/21 01:57:55;;;;;;;17.10;9.23;;;8.50;62.50;;;7.15;64.27;100816.53;12244275;19;20022;-81
2022/12/21 02:02:07;;;;;;;15.82;9.45;;;8.50;62.60;;;7.16;64.28;100819.09;12245900;19;20048;-81
2022/12/21 02:06:16;;;;;;;14.82;8.57;;;8.50;62.70;;;7.13;64.22;100814.03;12246613;19;20038;-81
2022/12/21 02:10:19;;;;;;;14.73;8.32;;;8.50;62.60;;;7.18;64.33;100813.81;12246551;19;20034;-80
2022/12/21 02:14:20;;;;;;;17.35;8.95;;;8.70;62.90;;;7.20;64.25;100827.59;12238372;19;20015;-81
2022/12/21 02:18:40;;;;;;;15.40;8.73;;;8.50;62.70;;;7.22;64.37;100815.41;12242154;19;20018;-81
2022/12/21 02:23:03;;;;;;;13.50;7.75;;;8.50;62.70;;;7.22;64.17;100820.59;12246732;19;20023;-81
2022/12/21 02:27:30;;;;;;;15.32;8.65;;;8.50;62.90;;;7.23;64.28;100822.28;12245378;19;20035;-81
2022/12/21 02:32:03;;;;;;;12.85;8.18;;;8.50;62.90;;;7.21;64.37;100827.53;12247298;19;20019;-81
2022/12/21 02:36:26;;;;;;;13.43;7.53;;;8.50;62.90;;;7.23;64.26;100817.06;12245249;19;20014;-81
2022/12/21 02:41:12;;;;;;;17.40;9.15;;;8.50;62.90;;;7.25;64.27;100810.06;12243062;19;20082;-81
2022/12/21 02:45:45;;;;;;;12.52;6.57;;;8.50;63.00;;;7.24;64.36;100803.19;12244818;19;20085;-81
2022/12/21 02:50:15;;;;;;;11.90;7.15;;;8.60;63.00;;;7.26;64.36;100812.63;12247170;19;20043;-81
2022/12/21 02:54:18;;;;;;;14.38;7.85;;;8.60;63.10;;;7.26;64.51;100796.16;12241662;19;20500;-81
2022/12/21 02:58:23;;;;;;;16.02;8.60;;;8.60;63.10;;;7.32;64.34;100811.53;12252151;19;20014;-81
2022/12/21 03:07:48;;;;;;;12.45;7.50;;;8.60;63.20;;;7.31;64.24;100804.63;12253501;19;20039;-81
2022/12/21 03:11:55;;;;;;;14.70;8.45;;;8.60;63.00;;;7.08;64.51;100756.22;12254566;19;20006;-81
2022/12/21 03:16:07;;;;;;;12.15;7.82;;;8.70;63.10;;;7.27;64.46;100787.50;12254410;19;20025;-81
2022/12/21 03:20:39;;;;;;;17.58;8.63;;;8.60;63.10;;;7.34;64.32;100793.28;12254480;19;20036;-81
2022/12/21 03:25:05;;;;;;;16.25;8.90;;;8.60;63.10;;;7.35;64.34;100801.00;12256598;19;20088;-82
2022/12/21 03:29:11;;;;;;;16.52;9.10;;;8.60;63.30;;;7.27;64.48;100771.91;12251769;19;20019;-81
2022/12/21 03:33:20;;;;;;;13.50;7.65;;;8.70;63.20;;;7.30;64.45;100774.38;12252912;19;20010;-82
2022/12/21 03:37:28;;;;;;;14.95;8.52;;;8.70;63.10;;;7.12;64.51;100739.59;12251980;19;20082;-82
2022/12/21 03:41:39;;;;;;;15.52;8.27;;;8.70;63.10;;;7.23;64.42;100754.75;12253344;19;20460;-81
2022/12/21 03:45:48;;;;;;;16.58;9.23;;;8.70;63.10;;;7.05;64.51;100714.81;12255186;19;20512;-82
2022/12/21 03:49:56;;;;;;;13.85;7.90;;;8.70;63.10;;;7.36;64.40;100763.72;12252278;19;20022;-81
2022/12/21 03:54:11;;;;;;;14.73;9.00;;;8.70;63.10;;;7.45;64.40;100778.94;12251562;19;20011;-81
2022/12/21 03:58:14;;;;;;;17.67;8.75;;;8.70;63.10;;;7.39;64.55;100757.56;12249676;19;20360;-81
2022/12/21 04:02:41;;;;;;;15.32;8.07;;;8.80;63.10;;;7.42;64.65;100766.06;12253155;19;20381;-82
2022/12/21 04:06:47;;;;;;;13.50;7.80;;;8.80;63.30;;;7.36;64.64;100753.34;12252127;19;20074;-81
2022/12/21 04:10:48;;;;;;;15.20;8.05;;;8.80;63.10;;;7.45;64.64;100768.56;12252911;19;20014;-81
2022/12/21 04:14:50;;;;;;;14.93;8.68;;;8.80;63.20;;;7.49;64.52;100767.50;12248759;19;20110;-81
2022/12/21 04:31:52;;;;;;;15.25;8.50;;;8.80;63.30;;;7.48;64.62;100755.44;12251127;19;20006;-81
2022/12/21 04:40:14;;;;;;;13.55;8.70;;;8.80;63.40;;;7.56;64.62;100759.44;12250760;19;20018;-82
2022/12/21 04:44:16;;;;;;;14.43;8.10;;;8.80;63.40;;;7.48;64.73;100745.03;12250700;19;20015;-81
2022/12/21 04:48:17;;;;;;;17.60;9.60;;;8.80;63.40;;;7.57;64.47;100755.97;12249065;19;20086;-81
2022/12/21 04:52:19;;;;;;;16.58;8.32;;;8.90;63.60;;;7.54;64.79;100744.78;12251659;19;20092;-81
2022/12/21 04:56:21;;;;;;;11.90;7.57;;;8.80;63.40;;;7.56;64.67;100742.13;12250894;19;20090;-81
2022/12/21 05:00:23;;;;;;;14.85;8.23;;;8.90;63.60;;;7.11;64.58;100665.22;12249017;19;20512;-80
2022/12/21 05:04:25;;;;;;;14.13;8.60;;;8.90;63.80;;;7.60;64.78;100742.84;12250367;19;20030;-83
2022/12/21 05:08:28;;;;;;;14.65;8.25;;;8.90;63.70;;;7.60;64.73;100745.44;12249906;19;20010;-81
2022/12/21 05:12:30;;;;;;;13.50;8.32;;;8.90;63.70;;;7.18;64.63;100671.81;12250846;19;20033;-82
2022/12/21 05:16:32;;;;;;;13.77;8.38;;;9.00;63.70;;;7.58;64.57;100735.09;12250761;19;20018;-82
2022/12/21 05:20:34;;;;;;;11.85;7.72;;;9.10;64.00;;;7.62;64.73;100741.03;12246822;19;20042;-81
2022/12/21 05:24:36;;;;;;;14.60;7.70;;;9.00;64.00;;;7.65;64.75;100741.72;12248327;19;20487;-81
2022/12/21 05:28:38;;;;;;;11.85;7.53;;;8.90;63.90;;;7.68;64.65;100740.75;12248877;19;20024;-82
2022/12/21 05:32:39;;;;;;;12.00;7.22;;;9.00;64.10;;;7.68;64.67;100744.19;12246446;19;20014;-81
2022/12/21 05:36:41;;;;;;;12.13;7.60;;;9.00;64.20;;;7.59;64.84;100720.34;12246952;19;20018;-82
2022/12/21 05:40:50;;;;;;;11.65;7.35;;;9.00;64.40;;;7.71;64.84;100753.59;12248356;19;20019;-82
2022/12/21 05:44:51;;;;;;;14.90;8.18;;;9.00;64.50;;;7.61;64.93;100711.56;12248858;19;20377;-82
2022/12/21 05:48:55;;;;;;;14.52;8.15;;;9.10;64.60;;;7.70;64.80;100726.78;12246821;19;20018;-82
2022/12/21 05:52:56;;;;;;;13.27;8.38;;;9.20;64.90;;;7.80;64.82;100748.00;12246635;19;20018;-82
2022/12/21 05:56:58;;;;;;;12.77;7.93;;;9.10;64.70;;;7.52;64.79;100705.00;12252768;19;20007;-82
2022/12/21 06:01:05;;;;;;;11.50;7.03;;;9.10;64.80;;;7.73;64.91;100726.63;12254021;19;20015;-82
2022/12/21 06:05:08;;;;;;;14.30;7.68;;;9.20;64.90;;;7.84;65.01;100746.13;12256556;19;20018;-82
2022/12/21 06:09:09;;;;;;;15.55;7.68;;;9.20;65.10;;;7.76;65.01;100721.31;12253597;19;20044;-82
2022/12/21 06:13:11;;;;;;;12.52;7.78;;;9.20;65.10;;;7.92;64.87;100752.69;12258185;19;20491;-82
2022/12/21 06:17:13;;;;;;;12.10;7.78;;;9.20;65.10;;;7.96;64.85;100751.63;12258289;19;20010;-82
2022/12/21 06:21:16;;;;;;;14.02;8.63;;;9.30;65.50;;;7.91;64.86;100732.81;12244465;19;20014;-83
2022/12/21 06:25:18;;;;;;;13.07;7.85;;;9.30;65.40;;;7.68;64.99;100689.59;12245106;19;20007;-82
2022/12/21 06:29:20;;;;;;;12.50;7.85;;;9.30;65.30;;;8.01;65.11;100740.19;12238099;19;20018;-82
2022/12/21 06:33:23;;;;;;;12.10;7.90;;;9.30;65.20;;;8.01;64.96;100745.38;12253911;19;20006;-80
2022/12/21 06:37:24;;;;;;;13.60;8.38;;;9.40;65.50;;;8.01;65.10;100729.78;12262864;19;20003;-82
2022/12/21 06:41:26;;;;;;;15.75;8.25;;;9.40;65.50;;;8.12;65.15;100748.34;12254083;19;20462;-80
2022/12/21 06:45:28;;;;;;;13.75;8.52;;;9.40;65.50;;;8.07;65.23;100738.13;12257847;19;20473;-82
2022/12/21 06:49:30;;;;;;;14.20;8.15;;;9.40;65.40;;;8.11;64.97;100737.09;12251287;19;20010;-82
2022/12/21 06:53:35;;;;;;;14.10;9.05;;;9.50;65.80;;;8.19;65.19;100750.63;12253558;19;20034;-82
2022/12/21 06:57:37;;;;;;;11.75;7.13;;;9.50;65.50;;;8.19;65.03;100750.63;12254914;19;20021;-81
2022/12/21 07:01:39;;;;;;;14.27;8.15;;;9.50;65.40;;;8.14;65.01;100742.16;12256923;19;20025;-81
2022/12/21 07:05:40;;;;;;;15.43;8.63;;;9.50;65.40;;;7.98;65.05;100723.78;12259671;19;20010;-83
2022/12/21 07:09:42;;;;;;;12.77;7.93;;;9.60;65.80;;;8.29;65.12;100773.59;12263856;19;20014;-83
2022/12/21 07:13:45;;;;;;;13.48;8.43;;;9.60;65.70;;;8.30;65.11;100765.75;12261568;19;20010;-82
2022/12/21 07:17:47;;;;;;;13.50;8.80;;;9.60;65.50;;;8.31;65.01;100772.63;12261367;19;20022;-84
2022/12/21 07:21:48;;;;;;;15.00;8.63;;;9.60;65.60;;;8.32;65.26;100758.72;12262308;19;20555;-82
2022/12/21 07:25:50;;;;;;;15.27;9.05;;;9.70;65.90;;;8.37;65.24;100761.09;12261770;19;20472;-82
2022/12/21 07:29:52;;;;;;;14.32;8.50;;;9.70;65.80;;;8.32;65.16;100737.06;12265741;19;20026;-81
2022/12/21 07:33:54;;;;;;;14.57;7.93;;;9.70;65.80;;;8.34;65.25;100745.63;12261893;19;20010;-82
2022/12/21 07:37:55;;;;;;;17.50;9.73;;;9.70;65.80;;;8.44;65.34;100744.31;12262730;19;20047;-82
2022/12/21 07:41:58;;;;;;;12.88;8.07;;;9.70;66.30;;;8.46;65.14;100750.31;12259961;19;20018;-82
2022/12/21 07:46:02;;;;;;;14.27;8.50;;;9.70;66.00;;;8.39;65.28;100746.28;12261864;19;20161;-82
2022/12/21 07:50:05;;;;;;;14.02;7.85;;;9.80;66.30;;;8.52;65.17;100772.59;12262218;19;20385;-81
2022/12/21 07:54:07;;;;;;;14.63;9.27;;;9.80;66.00;;;8.37;65.11;100741.13;12260613;19;20022;-82
2022/12/21 07:58:09;;;;;;;15.60;9.65;;;9.80;66.10;;;8.48;65.15;100758.03;12257289;19;20018;-82
2022/12/21 08:02:11;;;;;;;18.80;8.23;;;9.80;65.90;;;8.56;65.15;100768.94;12257322;19;20006;-83
2022/12/21 08:06:14;;;;;;;13.13;8.32;;;9.80;65.80;;;8.53;65.15;100771.69;12254853;19;20003;-82
2022/12/21 08:10:16;;;;;;;14.00;8.38;;;9.90;65.90;;;8.43;65.36;100757.41;12251692;19;20003;-83
2022/12/21 08:14:18;;;;;;;11.60;7.72;;;9.80;65.80;;;8.59;65.34;100780.06;12251436;19;20463;-82
2022/12/21 08:18:20;;;;;;;12.57;7.63;;;9.90;66.10;;;8.59;65.21;100777.47;12255350;19;20015;-82
2022/12/21 08:22:22;;;;;;;16.45;8.50;;;9.90;66.10;;;8.62;65.35;100785.13;12253509;19;20024;-83
2022/12/21 08:26:24;;;;;;;15.35;9.15;;;9.90;66.10;;;8.64;65.39;100787.63;12258570;19;20022;-82
2022/12/21 08:30:25;;;;;;;13.75;8.90;;;10.00;66.20;;;8.62;65.29;100784.28;12259661;19;20415;-82
2022/12/21 08:34:27;;;;;;;12.88;8.85;;;10.00;66.20;;;8.62;65.30;100792.09;12255224;19;20011;-82
2022/12/21 08:38:28;;;;;;;14.02;8.55;;;9.80;66.00;;;8.62;65.17;100792.94;12255538;19;20018;-82
2022/12/21 08:42:30;;;;;;;11.25;7.28;;;10.00;66.10;;;8.62;65.43;100792.94;12255769;19;20740;-83
2022/12/21 08:46:32;;;;;;;12.50;8.68;;;10.00;66.00;;;8.72;65.40;100798.56;12252745;19;20010;-82
2022/12/21 08:50:34;;;;;;;12.50;8.27;;;10.00;66.20;;;8.80;65.38;100806.00;12250542;19;20014;-81
2022/12/21 08:54:36;;;;;;;13.07;7.82;;;10.10;66.00;;;8.50;65.24;100764.00;12243002;19;20803;-82
2022/12/21 08:58:39;;;;;;;12.57;8.38;;;10.10;66.00;;;8.72;65.49;100789.88;12250715;19;20037;-84
2022/12/21 09:02:42;;;;;;;13.45;8.25;;;10.10;66.00;;;8.87;65.41;100802.19;12257865;19;20475;-84
2022/12/21 09:06:45;;;;;;;12.10;7.90;;;10.20;66.10;;;8.80;65.26;100799.06;12257282;19;20035;-85
2022/12/21 09:10:48;;;;;;;14.48;8.70;;;10.20;66.20;;;8.91;65.50;100808.97;12267437;19;20058;-85
2022/12/21 09:14:51;;;;;;;13.90;9.23;;;10.20;66.10;;;8.90;65.41;100794.25;12267112;19;20015;-85
2022/12/21 09:18:54;;;;;;;12.43;8.38;;;10.20;66.20;;;8.81;65.36;100782.50;12267832;19;20046;-84
2022/12/21 09:22:57;;;;;;;15.50;8.88;;;10.20;66.30;;;8.97;65.65;100803.47;12265319;19;20011;-85
2022/12/21 09:26:59;;;;;;;13.07;8.27;;;10.20;66.50;;;8.99;65.44;100795.56;12267139;19;20687;-85
2022/12/21 09:31:10;;;;;;;11.68;7.75;;;10.20;66.50;;;9.00;65.43;100794.66;12273854;19;20495;-84
2022/12/21 09:35:12;;;;;;;14.15;7.93;;;10.30;66.60;;;9.06;65.54;100799.56;12268148;19;20018;-84
2022/12/21 09:39:15;;;;;;;13.68;8.98;;;10.30;66.60;;;9.08;65.57;100801.19;12268258;19;20010;-82
2022/12/21 09:43:55;;;;;;;11.48;7.97;;;10.40;67.00;;;8.97;65.43;100785.22;12268620;19;20029;-83
2022/12/21 09:48:10;;;;;;;11.55;6.65;;;10.40;66.90;;;9.14;65.58;100807.03;12258258;19;20018;-83
2022/12/21 09:52:37;;;;;;;10.80;7.72;;;10.50;66.80;;;9.15;65.40;100795.69;12252487;19;20018;-83
2022/12/21 09:56:43;;;;;;;10.43;8.00;;;10.50;66.90;;;9.17;65.59;100799.91;12254070;19;20046;-81
2022/12/21 10:00:49;;;;;;;;;;;10.50;66.80;;;9.17;65.44;100793.84;12256609;19;20077;-82
2022/12/21 10:05:00;;;;;;;;;;;10.50;66.90;;;9.17;65.49;100793.84;12249653;19;19919;-84
2022/12/21 10:09:42;;;;;;;9.68;5.35;;;10.60;66.60;;;9.19;65.53;100790.25;12250605;19;19925;-84
2022/12/21 10:14:16;;;;;;;10.02;6.97;;;10.60;66.60;;;9.21;65.61;100780.59;12249154;19;20007;-83
2022/12/21 10:18:27;;;;;;;12.30;6.82;;;10.50;66.70;;;9.18;65.78;100765.13;12250187;19;20026;-84
2022/12/21 10:22:34;;;;;;;10.55;6.90;;;10.60;66.80;;;9.28;65.61;100770.72;12253979;19;20013;-83
2022/12/21 10:26:37;;;;;;;12.75;7.65;;;10.60;66.80;;;9.34;65.76;100772.19;12254394;19;20030;-84
2022/12/21 10:30:41;;;;;;;10.98;8.00;;;10.60;66.90;;;9.04;65.73;100715.44;12253711;19;20022;-84
2022/12/21 10:34:47;;;;;;;11.38;7.28;;;10.70;67.10;;;9.45;65.49;100772.47;12256360;19;20024;-82
2022/12/21 10:38:49;;;;;;;11.13;7.85;;;10.70;67.10;;;9.41;65.77;100752.72;12250706;19;20015;-82
2022/12/21 10:42:53;;;;;;;12.57;8.45;;;10.70;67.70;;;9.29;65.59;100736.78;12258930;19;20050;-85
2022/12/21 10:46:55;;;;;;;11.93;8.43;;;10.80;67.30;;;9.53;65.60;100765.13;12258660;19;20032;-83
2022/12/21 10:51:32;;;;;;;11.43;7.63;;;10.80;67.10;;;9.56;65.52;100762.38;12256820;19;20003;-83
2022/12/21 10:55:36;;;;;;;9.48;6.97;;;10.90;67.30;;;9.60;65.75;100758.69;12255673;19;20014;-83
2022/12/21 10:59:41;;;;;;;10.07;7.50;;;10.90;67.10;;;9.55;65.72;100728.56;12254302;19;20020;-84
2022/12/21 11:03:43;;;;;;;13.13;7.85;;;10.90;67.20;;;9.56;65.75;100722.41;12258808;19;20014;-84
2022/12/21 11:07:44;;;;;;;10.35;7.25;;;10.90;67.20;;;9.63;65.72;100729.00;12254702;19;20460;-82
2022/12/21 11:11:46;;;;;;;10.70;7.82;;;11.00;67.20;;;9.66;65.72;100728.84;12251431;19;20434;-83
2022/12/21 11:16:12;;;;;;;12.98;8.52;;;11.00;67.20;;;9.69;65.54;100732.16;12248396;19;20359;-82
2022/12/21 11:20:22;;;;;;;10.80;7.60;;;11.10;67.30;;;9.72;65.64;100736.34;12253742;19;20035;-83
2022/12/21 11:24:52;;;;;;;12.43;7.60;;;11.10;67.00;;;9.80;65.67;100738.56;12253069;19;20039;-82
2022/12/21 11:29:11;;;;;;;11.25;7.55;;;11.10;67.10;;;9.81;65.74;100735.06;12251461;19;20038;-82
2022/12/21 11:33:17;;;;;;;11.38;7.03;;;11.10;66.90;;;9.66;65.67;100708.81;12264455;19;20023;-83
2022/12/21 11:37:43;;;;;;;11.13;7.32;;;11.20;67.00;;;9.88;65.75;100728.56;12253476;19;20489;-82
2022/12/21 11:41:52;;;;;;;9.13;6.85;;;11.20;67.00;;;9.90;65.75;100731.97;12260039;19;20013;-85
2022/12/21 11:46:49;;;;;;;12.10;7.88;;;11.20;66.90;;;9.86;65.88;100720.00;12262559;19;20353;-84
2022/12/21 11:51:30;;;;;;;9.80;7.50;;;11.20;66.90;;;9.90;65.61;100717.16;12248848;19;20022;-82
2022/12/21 11:56:02;;;;;;;11.95;8.02;;;11.20;67.00;;;9.91;65.69;100704.94;12246163;19;20046;-82
2022/12/21 12:00:19;;;;;;;12.55;8.10;;;11.30;67.50;;;9.83;65.76;100692.31;12256067;19;20015;-82
2022/12/21 12:04:41;;;;;;;10.77;7.40;;;11.30;67.50;;;10.05;65.87;100717.28;12258469;19;20021;-82
2022/12/21 12:09:14;;;;;;;10.57;7.53;;;11.30;67.60;;;10.00;65.68;100712.28;12254359;19;20553;-82
2022/12/21 12:13:58;;;;;;;13.30;8.20;;;11.30;67.50;;;10.07;65.78;100708.44;12255796;19;20002;-82
2022/12/21 12:18:15;;;;;;;12.98;9.15;;;11.50;68.10;;;10.12;65.89;100706.41;12248985;19;20032;-82
2022/12/21 12:22:45;;;;;;;13.68;8.38;;;11.40;67.80;;;10.07;65.74;100698.00;12256577;19;20017;-82
2022/12/21 12:27:17;;;;;;;10.60;6.55;;;11.40;67.80;;;10.15;65.86;100697.56;12249634;19;20029;-82
2022/12/21 12:31:43;;;;;;;11.10;6.97;;;11.50;67.70;;;10.17;65.65;100687.91;12253833;19;20007;-83
2022/12/21 12:36:36;;;;;;;12.60;7.38;;;11.50;67.70;;;10.07;65.92;100682.34;12246688;19;20022;-83
2022/12/21 12:41:21;;;;;;;8.85;6.45;;;11.50;67.70;;;10.05;65.79;100676.38;12254813;19;20042;-83
2022/12/21 12:45:43;;;;;;;8.65;5.72;;;11.50;67.60;;;10.15;65.78;100682.78;12253771;19;20046;-81
2022/12/21 12:50:13;;;;;;;9.73;6.88;;;11.50;67.50;;;10.25;65.83;100695.31;12251223;19;20508;-82
2022/12/21 12:55:00;;;;;;;7.95;6.03;;;11.50;67.40;;;10.25;65.75;100701.38;12249703;19;20015;-82
2022/12/21 12:59:22;;;;;;;8.82;6.05;;;11.60;67.40;;;10.28;65.92;100695.19;12246592;19;20022;-82
2022/12/21 13:03:46;;;;;;;7.32;5.63;;;11.60;67.30;;;10.30;65.86;100695.94;12253606;19;20006;-81
2022/12/21 13:08:16;;;;;;;9.02;5.95;;;11.60;67.00;;;10.27;65.71;100693.47;12249722;19;20668;-82
2022/12/21 13:12:44;;;;;;;10.68;6.50;;;11.60;67.20;;;10.27;65.79;100699.56;12252899;19;20477;-82
2022/12/21 13:17:15;;;;;;;8.73;6.20;;;11.60;67.20;;;10.27;65.72;100688.25;12247453;19;20029;-82
2022/12/21 13:21:21;;;;;;;9.02;5.85;;;11.60;67.90;;;10.26;65.79;100689.16;12246521;19;20014;-82
2022/12/21 13:25:42;;;;;;;9.45;6.63;;;11.60;67.00;;;10.31;65.90;100685.41;12244624;19;20022;-84
2022/12/21 13:30:11;;;;;;;8.82;6.32;;;11.60;67.30;;;10.31;65.95;100690.63;12243920;19;20019;-84
2022/12/21 13:34:24;;;;;;;8.70;6.40;;;11.60;67.30;;;10.35;65.86;100704.38;12248810;19;20374;-83
2022/12/21 13:39:07;;;;;;;9.70;6.88;;;11.60;67.30;;;10.25;65.76;100664.00;12249445;19;20010;-83
2022/12/21 13:43:21;;;;;;;9.10;6.70;;;11.60;67.50;;;10.31;65.96;100664.53;12245678;19;20014;-82
2022/12/21 13:47:25;;;;;;;8.82;6.88;;;11.60;67.30;;;10.34;65.70;100671.34;12244385;19;20014;-81
2022/12/21 13:51:47;;;;;;;9.93;7.82;;;11.60;67.20;;;10.28;65.89;100669.09;12246037;19;20022;-82
2022/12/21 13:56:11;;;;;;;13.05;8.57;;;11.60;67.40;;;10.39;65.67;100685.00;12245551;19;20504;-82
2022/12/21 14:00:36;;;;;;;9.93;7.53;;;11.60;67.60;;;10.24;65.92;100644.91;12250497;19;20095;-82
2022/12/21 14:04:50;;;;;;;14.60;9.50;;;11.70;67.90;;;10.40;65.90;100663.19;12250320;19;20468;-82
2022/12/21 14:09:33;;;;;;;10.73;7.22;;;11.60;67.80;;;10.33;65.83;100638.34;12249338;19;20125;-81
2022/12/21 14:14:05;;;;;;;9.68;7.30;;;11.70;67.80;;;10.44;65.85;100659.47;12245988;19;20027;-82
2022/12/21 14:18:16;;;;;;;7.40;5.75;;;11.70;67.70;;;10.40;66.04;100653.59;12248318;19;20014;-82
2022/12/21 14:22:38;;;;;;;6.57;5.53;;;11.80;67.70;;;10.47;65.92;100656.69;12248552;19;20010;-82
2022/12/21 14:26:57;;;;;;;8.82;4.97;;;11.70;67.50;;;10.47;65.70;100646.25;12249869;19;20018;-82
2022/12/21 14:31:07;;;;;;;5.63;5.00;;;11.70;67.20;;;10.45;65.77;100642.91;12250071;19;20025;-82
2022/12/21 14:35:31;;;;;;;6.70;4.40;;;11.70;67.00;;;10.41;65.72;100652.66;12247731;19;20481;-82
2022/12/21 14:39:38;;;;;;;8.80;5.68;;;11.70;66.90;;;10.43;65.87;100649.97;12250555;19;20042;-82
2022/12/21 14:44:14;;;;;;;14.65;8.18;;;11.70;66.80;;;10.38;65.74;100650.22;12249924;19;20021;-82
2022/12/21 14:48:28;;;;;;;;;;;11.70;66.70;;;10.34;65.74;100653.94;12247044;19;20074;-82
2022/12/21 14:52:33;;;;;;;10.82;7.25;;;11.60;66.50;;;10.34;65.84;100647.84;12254449;19;20230;-82
2022/12/21 14:56:37;;;;;;;11.10;6.97;;;11.60;66.30;;;10.29;65.64;100655.09;12260834;19;20014;-82
2022/12/21 15:01:46;;;;;;;10.20;6.65;;;11.60;66.30;;;10.20;65.73;100657.25;12259901;19;20023;-82
2022/12/21 15:06:02;;;;;;;9.02;6.07;;;11.50;66.50;;;10.22;65.69;100664.19;12259641;19;20468;-82
2022/12/21 15:10:24;;;;;;;7.95;6.10;;;11.50;66.60;;;10.18;65.74;100664.34;12259604;19;20015;-82
2022/12/21 15:14:48;;;;;;;9.85;6.10;;;11.50;66.80;;;10.22;65.65;100651.13;12259563;19;20094;-82
2022/12/21 15:18:50;;;;;;;7.03;5.75;;;11.50;66.80;;;10.29;65.90;100652.50;12258911;19;20022;-81
2022/12/21 15:22:52;;;;;;;8.10;5.93;;;11.50;66.80;;;10.23;65.83;100639.75;12262220;19;20010;-83
2022/12/21 15:27:00;;;;;;;9.43;5.68;;;11.50;66.80;;;10.26;65.70;100658.72;12258779;19;20007;-82
2022/12/21 15:31:41;;;;;;;10.07;6.05;;;11.40;66.80;;;10.15;65.60;100633.22;12260307;19;20017;-82
2022/12/21 15:35:50;;;;;;;8.02;6.03;;;11.50;66.90;;;10.19;65.72;100645.16;12256041;19;20037;-82
2022/12/21 15:40:01;;;;;;;7.57;5.57;;;11.50;66.70;;;10.08;65.77;100626.63;12259693;19;20014;-82
2022/12/21 15:44:42;;;;;;;7.75;5.75;;;11.40;67.40;;;10.13;65.68;100647.25;12257757;19;20035;-82
2022/12/21 15:49:02;;;;;;;8.82;5.40;;;11.40;66.90;;;10.09;65.62;100641.34;12257545;19;20014;-83
2022/12/21 15:53:07;;;;;;;7.70;5.60;;;11.40;66.80;;;10.12;65.83;100633.34;12260067;19;20060;-82
2022/12/21 15:57:14;;;;;;;7.78;5.72;;;11.40;66.70;;;10.10;65.86;100630.00;12255530;19;20114;-83
2022/12/21 16:01:25;;;;;;;7.18;5.30;;;11.40;66.90;;;10.16;65.74;100639.25;12251999;19;20018;-82
2022/12/21 16:05:31;;;;;;;8.90;5.70;;;11.40;66.80;;;10.12;65.70;100643.78;12256915;19;20010;-81
2022/12/21 16:09:33;;;;;;;6.75;5.95;;;11.40;66.70;;;10.18;65.63;100640.03;12256886;19;20424;-81
2022/12/21 16:13:39;;;;;;;12.82;7.63;;;11.30;66.60;;;10.08;65.83;100616.19;12255235;19;20021;-82
2022/12/21 16:17:40;;;;;;;14.93;8.23;;;11.30;66.70;;;9.98;65.81;100600.19;12257182;19;20511;-82
2022/12/21 16:21:45;;;;;;;9.48;7.35;;;11.30;66.60;;;10.07;65.80;100619.75;12260310;19;20002;-82
2022/12/21 16:25:48;;;;;;;9.80;6.95;;;11.30;66.60;;;10.08;65.73;100628.41;12257403;19;20464;-82
2022/12/21 16:29:55;;;;;;;8.35;5.80;;;11.30;66.50;;;10.07;65.57;100626.69;12254209;19;20018;-82
2022/12/21 16:34:02;;;;;;;8.57;5.95;;;11.20;66.20;;;10.08;65.94;100626.63;12257056;19;20357;-82
2022/12/21 16:38:04;;;;;;;9.85;5.75;;;11.20;66.00;;;9.97;65.71;100629.00;12253654;19;20475;-81
2022/12/21 16:42:13;;;;;;;10.50;6.53;;;11.20;65.80;;;9.92;65.71;100631.00;12250779;19;20106;-82
2022/12/21 16:46:16;;;;;;;9.52;6.32;;;11.20;65.60;;;9.98;65.75;100654.97;12242220;19;20046;-82
2022/12/21 16:50:46;;;;;;;8.55;5.82;;;11.20;65.60;;;9.92;65.72;100651.88;12248463;19;20019;-82
2022/12/21 16:54:47;;;;;;;9.98;5.45;;;11.10;65.60;;;9.92;65.69;100663.13;12252248;19;20022;-82
2022/12/21 16:59:00;;;;;;;8.18;4.65;;;11.10;65.50;;;9.87;65.41;100657.31;12247080;19;20026;-82
2022/12/21 17:03:29;;;;;;;12.70;3.97;;;11.00;65.00;;;9.75;65.45;100643.19;12247670;19;20771;-82
2022/12/21 17:07:42;;;;;;;7.18;3.67;;;11.00;64.50;;;9.71;65.59;100646.03;12247665;19;20022;-82
2022/12/21 17:11:47;;;;;;;5.38;3.00;;;10.90;64.40;;;9.65;65.56;100654.16;12252078;19;20453;-82
2022/12/21 17:16:05;;;;;;;2.72;2.53;;;10.90;64.30;;;9.57;65.07;100662.38;12244557;19;20035;-82
2022/12/21 17:20:15;;;;;;;3.53;2.40;;;10.80;64.10;;;9.53;65.22;100668.66;12248375;19;20018;-82
2022/12/21 17:24:35;;;;;;;3.08;2.80;;;10.70;63.90;;;9.37;65.30;100649.53;12249885;19;20427;-82
2022/12/21 17:28:41;;;;;;;2.60;2.40;;;10.70;64.00;;;9.39;65.42;100658.97;12248497;19;20018;-82
2022/12/21 17:32:43;;;;;;;3.13;2.83;;;10.60;63.90;;;9.09;65.29;100620.53;12249072;19;20019;-82
2022/12/21 17:36:45;;;;;;;2.63;2.42;;;10.60;63.90;;;9.25;65.24;100656.22;12249146;19;20018;-82
2022/12/21 17:40:48;;;;;;;3.38;3.08;;;10.50;63.90;;;9.19;65.22;100660.00;12249429;19;20049;-82